sensor_id;sensor_type;location;lat;lon;timestamp;temperature;humidity
19164;DHT22;9714;51.208;4.242;2022-12-16T00:00:07;-0.50;99.90
19164;DHT22;9714;51.208;4.242;2022-12-16T00:02:36;-0.60;99.90
19164;DHT22;9714;51.208;4.242;2022-12-16T00:05:03;-0.50;99.90
19164;DHT22;9714;51.208;4.242;2022-12-16T00:07:30;-0.40;99.90
19164;DHT22;9714;51.208;4.242;2022-12-16T00:09:57;-0.60;99.90
19164;DHT22;9714;51.208;4.242;2022-12-16T00:12:24;-0.60;99.90
19164;DHT22;9714;51.208;4.242;2022-12-16T00:14:51;-0.60;99.90
19164;DHT22;9714;51.208;4.242;2022-12-16T00:17:18;-0.60;99.90
19164;DHT22;9714;51.208;4.242;2022-12-16T00:19:46;-0.60;99.90
19164;DHT22;9714;51.208;4.242;2022-12-16T00:22:13;-0.60;99.90
19164;DHT22;9714;51.208;4.242;2022-12-16T00:24:40;-0.60;99.90
19164;DHT22;9714;51.208;4.242;2022-12-16T00:27:07;-0.50;99.90
19164;DHT22;9714;51.208;4.242;2022-12-16T00:29:34;-0.50;99.90
19164;DHT22;9714;51.208;4.242;2022-12-16T00:32:01;-0.50;99.90
19164;DHT22;9714;51.208;4.242;2022-12-16T00:34:28;-0.20;99.90
19164;DHT22;9714;51.208;4.242;2022-12-16T00:36:57;-0.20;99.90
19164;DHT22;9714;51.208;4.242;2022-12-16T00:39:24;0.00;99.90
19164;DHT22;9714;51.208;4.242;2022-12-16T00:41:51;0.30;99.90
19164;DHT22;9714;51.208;4.242;2022-12-16T00:44:18;0.40;99.90
19164;DHT22;9714;51.208;4.242;2022-12-16T00:46:45;0.30;99.90
19164;DHT22;9714;51.208;4.242;2022-12-16T00:49:14;0.10;99.90
19164;DHT22;9714;51.208;4.242;2022-12-16T00:51:41;0.00;99.90
19164;DHT22;9714;51.208;4.242;2022-12-16T00:54:09;-0.10;99.90
19164;DHT22;9714;51.208;4.242;2022-12-16T00:56:36;-0.10;99.90
19164;DHT22;9714;51.208;4.242;2022-12-16T00:59:03;0.00;99.90
19164;DHT22;9714;51.208;4.242;2022-12-16T01:01:32;0.30;99.90
19164;DHT22;9714;51.208;4.242;2022-12-16T01:04:00;0.40;99.90
19164;DHT22;9714;51.208;4.242;2022-12-16T01:06:26;0.50;99.90
19164;DHT22;9714;51.208;4.242;2022-12-16T01:08:53;0.30;99.90
19164;DHT22;9714;51.208;4.242;2022-12-16T01:11:22;0.40;99.90
19164;DHT22;9714;51.208;4.242;2022-12-16T01:13:49;0.20;99.90
19164;DHT22;9714;51.208;4.242;2022-12-16T01:16:16;0.10;99.90
19164;DHT22;9714;51.208;4.242;2022-12-16T01:18:43;0.10;99.90
19164;DHT22;9714;51.208;4.242;2022-12-16T01:21:12;0.10;99.90
19164;DHT22;9714;51.208;4.242;2022-12-16T01:23:40;0.00;99.90
19164;DHT22;9714;51.208;4.242;2022-12-16T01:26:11;0.00;99.90
19164;DHT22;9714;51.208;4.242;2022-12-16T01:28:42;0.30;99.90
19164;DHT22;9714;51.208;4.242;2022-12-16T01:31:10;0.10;99.90
19164;DHT22;9714;51.208;4.242;2022-12-16T01:33:37;0.00;99.90
19164;DHT22;9714;51.208;4.242;2022-12-16T01:36:06;-0.20;99.90
19164;DHT22;9714;51.208;4.242;2022-12-16T01:38:34;-0.10;99.90
19164;DHT22;9714;51.208;4.242;2022-12-16T01:41:02;-0.10;99.90
19164;DHT22;9714;51.208;4.242;2022-12-16T01:43:31;0.00;99.90
19164;DHT22;9714;51.208;4.242;2022-12-16T01:46:03;0.00;99.90
19164;DHT22;9714;51.208;4.242;2022-12-16T01:48:36;0.10;99.90
19164;DHT22;9714;51.208;4.242;2022-12-16T01:51:07;0.40;99.90
19164;DHT22;9714;51.208;4.242;2022-12-16T01:53:36;0.70;99.90
19164;DHT22;9714;51.208;4.242;2022-12-16T01:56:06;1.10;99.90
19164;DHT22;9714;51.208;4.242;2022-12-16T01:58:35;1.30;99.90
19164;DHT22;9714;51.208;4.242;2022-12-16T02:01:05;1.40;99.90
19164;DHT22;9714;51.208;4.242;2022-12-16T02:03:34;1.50;99.90
19164;DHT22;9714;51.208;4.242;2022-12-16T02:06:03;1.50;99.90
19164;DHT22;9714;51.208;4.242;2022-12-16T02:08:31;1.50;99.90
19164;DHT22;9714;51.208;4.242;2022-12-16T02:11:22;1.60;99.90
19164;DHT22;9714;51.208;4.242;2022-12-16T02:14:13;1.80;99.90
19164;DHT22;9714;51.208;4.242;2022-12-16T02:16:48;1.90;99.90
19164;DHT22;9714;51.208;4.242;2022-12-16T02:19:37;2.10;99.90
19164;DHT22;9714;51.208;4.242;2022-12-16T02:22:19;2.10;99.90
19164;DHT22;9714;51.208;4.242;2022-12-16T02:25:23;2.10;99.90
19164;DHT22;9714;51.208;4.242;2022-12-16T02:28:02;2.20;99.90
19164;DHT22;9714;51.208;4.242;2022-12-16T02:30:59;2.10;99.90
19164;DHT22;9714;51.208;4.242;2022-12-16T02:33:50;2.20;99.90
19164;DHT22;9714;51.208;4.242;2022-12-16T02:36:26;2.30;99.90
19164;DHT22;9714;51.208;4.242;2022-12-16T02:38:58;2.40;99.90
19164;DHT22;9714;51.208;4.242;2022-12-16T02:41:32;2.50;99.90
19164;DHT22;9714;51.208;4.242;2022-12-16T02:44:05;2.50;99.90
19164;DHT22;9714;51.208;4.242;2022-12-16T02:46:39;2.40;99.90
19164;DHT22;9714;51.208;4.242;2022-12-16T02:49:34;2.40;99.90
19164;DHT22;9714;51.208;4.242;2022-12-16T02:51:56;2.40;99.90
19164;DHT22;9714;51.208;4.242;2022-12-16T02:54:25;2.40;99.90
19164;DHT22;9714;51.208;4.242;2022-12-16T02:57:00;2.40;99.90
19164;DHT22;9714;51.208;4.242;2022-12-16T02:59:35;2.40;99.90
19164;DHT22;9714;51.208;4.242;2022-12-16T03:02:11;2.50;99.90
19164;DHT22;9714;51.208;4.242;2022-12-16T03:04:46;2.60;99.90
19164;DHT22;9714;51.208;4.242;2022-12-16T03:07:17;2.70;99.90
19164;DHT22;9714;51.208;4.242;2022-12-16T03:09:48;2.70;99.90
19164;DHT22;9714;51.208;4.242;2022-12-16T03:12:18;2.80;99.90
19164;DHT22;9714;51.208;4.242;2022-12-16T03:14:49;2.70;99.90
19164;DHT22;9714;51.208;4.242;2022-12-16T03:17:20;2.50;99.90
19164;DHT22;9714;51.208;4.242;2022-12-16T03:19:55;2.60;99.90
19164;DHT22;9714;51.208;4.242;2022-12-16T03:22:27;2.70;99.90
19164;DHT22;9714;51.208;4.242;2022-12-16T03:24:55;2.90;99.90
19164;DHT22;9714;51.208;4.242;2022-12-16T03:27:26;3.00;99.90
19164;DHT22;9714;51.208;4.242;2022-12-16T03:30:02;2.80;99.90
19164;DHT22;9714;51.208;4.242;2022-12-16T03:32:36;2.90;99.90
19164;DHT22;9714;51.208;4.242;2022-12-16T03:35:13;2.90;99.90
19164;DHT22;9714;51.208;4.242;2022-12-16T03:37:42;3.00;99.90
19164;DHT22;9714;51.208;4.242;2022-12-16T03:40:12;3.00;99.90
19164;DHT22;9714;51.208;4.242;2022-12-16T03:42:40;3.00;99.90
19164;DHT22;9714;51.208;4.242;2022-12-16T03:45:13;2.90;99.90
19164;DHT22;9714;51.208;4.242;2022-12-16T03:47:49;2.90;99.90
19164;DHT22;9714;51.208;4.242;2022-12-16T03:50:21;2.80;99.90
19164;DHT22;9714;51.208;4.242;2022-12-16T03:52:52;2.90;99.90
19164;DHT22;9714;51.208;4.242;2022-12-16T03:55:21;2.90;99.90
19164;DHT22;9714;51.208;4.242;2022-12-16T03:57:48;2.80;99.90
19164;DHT22;9714;51.208;4.242;2022-12-16T04:00:16;2.70;99.90
19164;DHT22;9714;51.208;4.242;2022-12-16T04:02:45;2.80;99.90
19164;DHT22;9714;51.208;4.242;2022-12-16T04:05:14;2.80;99.90
19164;DHT22;9714;51.208;4.242;2022-12-16T04:07:41;3.00;99.90
19164;DHT22;9714;51.208;4.242;2022-12-16T04:10:10;3.10;99.90
19164;DHT22;9714;51.208;4.242;2022-12-16T04:12:39;3.40;99.90
19164;DHT22;9714;51.208;4.242;2022-12-16T04:15:25;3.20;99.90
19164;DHT22;9714;51.208;4.242;2022-12-16T04:18:15;3.00;99.90
19164;DHT22;9714;51.208;4.242;2022-12-16T04:21:04;2.90;99.90
19164;DHT22;9714;51.208;4.242;2022-12-16T04:23:51;3.00;99.90
19164;DHT22;9714;51.208;4.242;2022-12-16T04:26:37;2.80;99.90
19164;DHT22;9714;51.208;4.242;2022-12-16T04:29:19;2.80;99.90
19164;DHT22;9714;51.208;4.242;2022-12-16T04:31:49;2.80;99.90
19164;DHT22;9714;51.208;4.242;2022-12-16T04:34:17;2.70;99.90
19164;DHT22;9714;51.208;4.242;2022-12-16T04:36:58;2.70;99.90
19164;DHT22;9714;51.208;4.242;2022-12-16T04:39:46;2.60;99.90
19164;DHT22;9714;51.208;4.242;2022-12-16T04:42:32;2.50;99.90
19164;DHT22;9714;51.208;4.242;2022-12-16T04:45:17;2.30;99.90
19164;DHT22;9714;51.208;4.242;2022-12-16T04:48:02;2.20;99.90
19164;DHT22;9714;51.208;4.242;2022-12-16T04:50:47;2.30;99.90
19164;DHT22;9714;51.208;4.242;2022-12-16T04:53:33;2.20;99.90
19164;DHT22;9714;51.208;4.242;2022-12-16T04:56:15;2.10;99.90
19164;DHT22;9714;51.208;4.242;2022-12-16T04:59:00;2.20;99.90
19164;DHT22;9714;51.208;4.242;2022-12-16T05:01:45;1.90;99.90
19164;DHT22;9714;51.208;4.242;2022-12-16T05:04:29;2.00;99.90
19164;DHT22;9714;51.208;4.242;2022-12-16T05:07:14;2.10;99.90
19164;DHT22;9714;51.208;4.242;2022-12-16T05:10:03;2.10;99.90
19164;DHT22;9714;51.208;4.242;2022-12-16T05:12:48;2.00;99.90
19164;DHT22;9714;51.208;4.242;2022-12-16T05:15:34;2.00;99.90
19164;DHT22;9714;51.208;4.242;2022-12-16T05:18:19;2.10;99.90
19164;DHT22;9714;51.208;4.242;2022-12-16T05:21:04;2.30;99.90
19164;DHT22;9714;51.208;4.242;2022-12-16T05:23:50;2.30;99.90
19164;DHT22;9714;51.208;4.242;2022-12-16T05:26:39;2.10;99.90
19164;DHT22;9714;51.208;4.242;2022-12-16T05:29:26;2.10;99.90
19164;DHT22;9714;51.208;4.242;2022-12-16T05:32:12;2.00;99.90
19164;DHT22;9714;51.208;4.242;2022-12-16T05:34:58;2.00;99.90
19164;DHT22;9714;51.208;4.242;2022-12-16T05:37:47;1.80;99.90
19164;DHT22;9714;51.208;4.242;2022-12-16T05:40:32;1.70;99.90
19164;DHT22;9714;51.208;4.242;2022-12-16T05:43:21;1.60;99.90
19164;DHT22;9714;51.208;4.242;2022-12-16T05:46:12;1.70;99.90
19164;DHT22;9714;51.208;4.242;2022-12-16T05:48:59;1.80;99.90
19164;DHT22;9714;51.208;4.242;2022-12-16T05:51:45;1.70;99.90
19164;DHT22;9714;51.208;4.242;2022-12-16T05:54:38;1.60;99.90
19164;DHT22;9714;51.208;4.242;2022-12-16T05:57:23;1.70;99.90
19164;DHT22;9714;51.208;4.242;2022-12-16T06:00:11;1.70;99.90
19164;DHT22;9714;51.208;4.242;2022-12-16T06:02:56;1.60;99.90
19164;DHT22;9714;51.208;4.242;2022-12-16T06:05:41;1.70;99.90
19164;DHT22;9714;51.208;4.242;2022-12-16T06:08:25;1.50;99.90
19164;DHT22;9714;51.208;4.242;2022-12-16T06:11:11;1.60;99.90
19164;DHT22;9714;51.208;4.242;2022-12-16T06:13:57;1.50;99.90
19164;DHT22;9714;51.208;4.242;2022-12-16T06:16:45;1.50;99.90
19164;DHT22;9714;51.208;4.242;2022-12-16T06:19:32;1.50;99.90
19164;DHT22;9714;51.208;4.242;2022-12-16T06:22:18;1.30;99.90
19164;DHT22;9714;51.208;4.242;2022-12-16T06:25:06;1.40;99.90
19164;DHT22;9714;51.208;4.242;2022-12-16T06:27:51;1.70;99.90
19164;DHT22;9714;51.208;4.242;2022-12-16T06:30:37;1.50;99.90
19164;DHT22;9714;51.208;4.242;2022-12-16T06:33:33;1.30;99.90
19164;DHT22;9714;51.208;4.242;2022-12-16T06:36:17;1.30;99.90
19164;DHT22;9714;51.208;4.242;2022-12-16T06:39:04;1.30;99.90
19164;DHT22;9714;51.208;4.242;2022-12-16T06:41:49;1.10;99.90
19164;DHT22;9714;51.208;4.242;2022-12-16T06:44:35;1.00;99.90
19164;DHT22;9714;51.208;4.242;2022-12-16T06:47:20;1.00;99.90
19164;DHT22;9714;51.208;4.242;2022-12-16T06:50:07;1.10;99.90
19164;DHT22;9714;51.208;4.242;2022-12-16T06:52:52;0.90;99.90
19164;DHT22;9714;51.208;4.242;2022-12-16T06:55:52;0.90;99.90
19164;DHT22;9714;51.208;4.242;2022-12-16T06:58:36;0.70;99.90
19164;DHT22;9714;51.208;4.242;2022-12-16T07:01:23;0.50;99.90
19164;DHT22;9714;51.208;4.242;2022-12-16T07:04:10;0.60;99.90
19164;DHT22;9714;51.208;4.242;2022-12-16T07:06:57;0.50;99.90
19164;DHT22;9714;51.208;4.242;2022-12-16T07:09:47;0.60;99.90
19164;DHT22;9714;51.208;4.242;2022-12-16T07:12:33;0.50;99.90
19164;DHT22;9714;51.208;4.242;2022-12-16T07:15:32;0.40;99.90
19164;DHT22;9714;51.208;4.242;2022-12-16T07:18:17;0.30;99.90
19164;DHT22;9714;51.208;4.242;2022-12-16T07:21:02;0.20;99.90
19164;DHT22;9714;51.208;4.242;2022-12-16T07:23:49;0.40;99.90
19164;DHT22;9714;51.208;4.242;2022-12-16T07:26:33;0.20;99.90
19164;DHT22;9714;51.208;4.242;2022-12-16T07:29:18;0.30;99.90
19164;DHT22;9714;51.208;4.242;2022-12-16T07:32:03;0.60;99.90
19164;DHT22;9714;51.208;4.242;2022-12-16T07:34:49;1.00;99.90
19164;DHT22;9714;51.208;4.242;2022-12-16T07:37:36;1.10;99.90
19164;DHT22;9714;51.208;4.242;2022-12-16T07:40:30;0.80;99.90
19164;DHT22;9714;51.208;4.242;2022-12-16T07:43:15;0.60;99.90
19164;DHT22;9714;51.208;4.242;2022-12-16T07:46:03;0.80;99.90
19164;DHT22;9714;51.208;4.242;2022-12-16T07:48:51;0.80;99.90
19164;DHT22;9714;51.208;4.242;2022-12-16T07:51:35;0.70;99.90
19164;DHT22;9714;51.208;4.242;2022-12-16T07:54:23;0.40;99.90
19164;DHT22;9714;51.208;4.242;2022-12-16T07:57:09;0.10;99.90
19164;DHT22;9714;51.208;4.242;2022-12-16T07:59:55;0.00;99.90
19164;DHT22;9714;51.208;4.242;2022-12-16T08:02:41;-0.20;99.90
19164;DHT22;9714;51.208;4.242;2022-12-16T08:05:26;-0.10;99.90
19164;DHT22;9714;51.208;4.242;2022-12-16T08:08:11;-0.10;99.90
19164;DHT22;9714;51.208;4.242;2022-12-16T08:10:56;0.00;99.90
19164;DHT22;9714;51.208;4.242;2022-12-16T08:13:43;-0.10;99.90
19164;DHT22;9714;51.208;4.242;2022-12-16T08:16:28;-0.20;99.90
19164;DHT22;9714;51.208;4.242;2022-12-16T08:19:12;-0.20;99.90
19164;DHT22;9714;51.208;4.242;2022-12-16T08:21:59;-0.10;99.90
19164;DHT22;9714;51.208;4.242;2022-12-16T08:24:46;-0.10;99.90
19164;DHT22;9714;51.208;4.242;2022-12-16T08:27:30;-0.10;99.90
19164;DHT22;9714;51.208;4.242;2022-12-16T08:30:16;-0.10;99.90
19164;DHT22;9714;51.208;4.242;2022-12-16T08:33:02;0.00;99.90
19164;DHT22;9714;51.208;4.242;2022-12-16T08:35:51;0.00;99.90
19164;DHT22;9714;51.208;4.242;2022-12-16T08:38:39;0.30;99.90
19164;DHT22;9714;51.208;4.242;2022-12-16T08:41:24;0.20;99.90
19164;DHT22;9714;51.208;4.242;2022-12-16T08:44:09;0.20;99.90
19164;DHT22;9714;51.208;4.242;2022-12-16T08:46:55;0.20;99.90
19164;DHT22;9714;51.208;4.242;2022-12-16T08:49:43;0.30;99.90
19164;DHT22;9714;51.208;4.242;2022-12-16T08:52:28;0.30;99.90
19164;DHT22;9714;51.208;4.242;2022-12-16T08:55:14;0.30;99.90
19164;DHT22;9714;51.208;4.242;2022-12-16T08:57:59;0.20;99.90
19164;DHT22;9714;51.208;4.242;2022-12-16T09:00:43;0.30;99.90
19164;DHT22;9714;51.208;4.242;2022-12-16T09:03:29;0.40;99.90
19164;DHT22;9714;51.208;4.242;2022-12-16T09:06:17;0.40;99.90
19164;DHT22;9714;51.208;4.242;2022-12-16T09:09:04;0.50;99.90
19164;DHT22;9714;51.208;4.242;2022-12-16T09:11:49;0.80;99.90
19164;DHT22;9714;51.208;4.242;2022-12-16T09:14:35;1.50;99.90
19164;DHT22;9714;51.208;4.242;2022-12-16T09:17:21;1.70;99.90
19164;DHT22;9714;51.208;4.242;2022-12-16T09:20:08;1.40;99.90
19164;DHT22;9714;51.208;4.242;2022-12-16T09:22:53;1.20;99.90
19164;DHT22;9714;51.208;4.242;2022-12-16T09:25:39;1.10;99.90
19164;DHT22;9714;51.208;4.242;2022-12-16T09:28:24;1.10;99.90
19164;DHT22;9714;51.208;4.242;2022-12-16T09:31:09;1.30;99.90
19164;DHT22;9714;51.208;4.242;2022-12-16T09:33:56;1.60;99.90
19164;DHT22;9714;51.208;4.242;2022-12-16T09:36:43;1.60;99.90
19164;DHT22;9714;51.208;4.242;2022-12-16T09:39:28;1.70;99.90
19164;DHT22;9714;51.208;4.242;2022-12-16T09:42:21;1.60;99.90
19164;DHT22;9714;51.208;4.242;2022-12-16T09:45:29;1.80;99.90
19164;DHT22;9714;51.208;4.242;2022-12-16T09:48:20;1.70;99.90
19164;DHT22;9714;51.208;4.242;2022-12-16T09:51:10;1.80;99.90
19164;DHT22;9714;51.208;4.242;2022-12-16T09:53:59;2.00;99.90
19164;DHT22;9714;51.208;4.242;2022-12-16T09:56:46;2.00;99.90
19164;DHT22;9714;51.208;4.242;2022-12-16T09:59:35;2.40;99.90
19164;DHT22;9714;51.208;4.242;2022-12-16T10:02:22;2.60;99.90
19164;DHT22;9714;51.208;4.242;2022-12-16T10:05:11;2.80;99.90
19164;DHT22;9714;51.208;4.242;2022-12-16T10:08:03;2.70;99.90
19164;DHT22;9714;51.208;4.242;2022-12-16T10:10:55;2.70;99.90
19164;DHT22;9714;51.208;4.242;2022-12-16T10:13:50;2.70;99.90
19164;DHT22;9714;51.208;4.242;2022-12-16T10:16:46;2.70;99.90
19164;DHT22;9714;51.208;4.242;2022-12-16T10:19:39;2.60;99.90
19164;DHT22;9714;51.208;4.242;2022-12-16T10:22:36;2.70;99.90
19164;DHT22;9714;51.208;4.242;2022-12-16T10:25:27;3.20;99.90
19164;DHT22;9714;51.208;4.242;2022-12-16T10:28:22;3.30;99.90
19164;DHT22;9714;51.208;4.242;2022-12-16T10:31:13;3.30;99.90
19164;DHT22;9714;51.208;4.242;2022-12-16T10:34:01;3.40;99.90
19164;DHT22;9714;51.208;4.242;2022-12-16T10:36:52;3.50;99.90
19164;DHT22;9714;51.208;4.242;2022-12-16T10:39:42;4.00;99.90
19164;DHT22;9714;51.208;4.242;2022-12-16T10:42:31;4.40;99.90
19164;DHT22;9714;51.208;4.242;2022-12-16T10:45:24;4.40;99.90
19164;DHT22;9714;51.208;4.242;2022-12-16T10:48:11;4.90;99.90
19164;DHT22;9714;51.208;4.242;2022-12-16T10:50:58;5.60;99.90
19164;DHT22;9714;51.208;4.242;2022-12-16T10:53:48;6.20;99.90
19164;DHT22;9714;51.208;4.242;2022-12-16T10:56:48;6.70;99.90
19164;DHT22;9714;51.208;4.242;2022-12-16T10:59:40;7.00;99.90
19164;DHT22;9714;51.208;4.242;2022-12-16T11:02:28;7.40;99.90
19164;DHT22;9714;51.208;4.242;2022-12-16T11:05:29;7.70;99.90
19164;DHT22;9714;51.208;4.242;2022-12-16T11:08:24;7.70;99.90
19164;DHT22;9714;51.208;4.242;2022-12-16T11:11:21;7.30;99.90
19164;DHT22;9714;51.208;4.242;2022-12-16T11:14:29;7.10;99.90
19164;DHT22;9714;51.208;4.242;2022-12-16T11:17:18;6.80;99.90
19164;DHT22;9714;51.208;4.242;2022-12-16T11:20:16;6.40;99.90
19164;DHT22;9714;51.208;4.242;2022-12-16T11:23:16;6.10;99.90
19164;DHT22;9714;51.208;4.242;2022-12-16T11:26:11;5.60;99.90
19164;DHT22;9714;51.208;4.242;2022-12-16T11:29:08;5.40;99.90
19164;DHT22;9714;51.208;4.242;2022-12-16T11:32:02;5.20;99.90
19164;DHT22;9714;51.208;4.242;2022-12-16T11:34:52;4.90;99.90
19164;DHT22;9714;51.208;4.242;2022-12-16T11:37:42;5.10;99.90
19164;DHT22;9714;51.208;4.242;2022-12-16T11:40:28;5.30;99.90
19164;DHT22;9714;51.208;4.242;2022-12-16T11:43:16;5.20;99.90
19164;DHT22;9714;51.208;4.242;2022-12-16T11:46:07;5.10;99.90
19164;DHT22;9714;51.208;4.242;2022-12-16T11:48:58;5.00;99.90
19164;DHT22;9714;51.208;4.242;2022-12-16T11:51:45;5.10;99.90
19164;DHT22;9714;51.208;4.242;2022-12-16T11:54:38;4.80;99.90
19164;DHT22;9714;51.208;4.242;2022-12-16T11:57:46;5.10;99.90
19164;DHT22;9714;51.208;4.242;2022-12-16T12:00:37;5.20;99.90
19164;DHT22;9714;51.208;4.242;2022-12-16T12:03:28;5.10;99.90
19164;DHT22;9714;51.208;4.242;2022-12-16T12:06:21;5.40;99.90
19164;DHT22;9714;51.208;4.242;2022-12-16T12:09:16;5.10;99.90
19164;DHT22;9714;51.208;4.242;2022-12-16T12:12:13;5.30;99.90
19164;DHT22;9714;51.208;4.242;2022-12-16T12:15:13;5.10;99.90
19164;DHT22;9714;51.208;4.242;2022-12-16T12:18:07;5.20;99.90
19164;DHT22;9714;51.208;4.242;2022-12-16T12:20:59;5.20;99.90
19164;DHT22;9714;51.208;4.242;2022-12-16T12:23:52;5.20;99.90
19164;DHT22;9714;51.208;4.242;2022-12-16T12:26:43;5.20;99.90
19164;DHT22;9714;51.208;4.242;2022-12-16T12:29:37;5.10;99.90
19164;DHT22;9714;51.208;4.242;2022-12-16T12:32:31;5.10;99.90
19164;DHT22;9714;51.208;4.242;2022-12-16T12:35:34;5.00;99.90
19164;DHT22;9714;51.208;4.242;2022-12-16T12:38:25;5.20;99.90
19164;DHT22;9714;51.208;4.242;2022-12-16T12:41:17;5.40;99.90
19164;DHT22;9714;51.208;4.242;2022-12-16T12:44:07;5.40;99.90
19164;DHT22;9714;51.208;4.242;2022-12-16T12:46:57;5.40;99.90
19164;DHT22;9714;51.208;4.242;2022-12-16T12:49:46;5.40;99.90
19164;DHT22;9714;51.208;4.242;2022-12-16T12:52:54;5.40;99.90
19164;DHT22;9714;51.208;4.242;2022-12-16T12:55:46;5.50;99.90
19164;DHT22;9714;51.208;4.242;2022-12-16T12:58:36;5.40;99.90
19164;DHT22;9714;51.208;4.242;2022-12-16T13:01:25;5.10;99.90
19164;DHT22;9714;51.208;4.242;2022-12-16T13:04:26;5.30;99.90
19164;DHT22;9714;51.208;4.242;2022-12-16T13:07:12;5.60;99.90
19164;DHT22;9714;51.208;4.242;2022-12-16T13:10:28;5.50;99.90
19164;DHT22;9714;51.208;4.242;2022-12-16T13:13:33;5.20;99.90
19164;DHT22;9714;51.208;4.242;2022-12-16T13:19:58;5.40;99.90
19164;DHT22;9714;51.208;4.242;2022-12-16T13:22:44;5.40;99.90
19164;DHT22;9714;51.208;4.242;2022-12-16T13:25:39;5.40;99.90
19164;DHT22;9714;51.208;4.242;2022-12-16T13:28:28;5.30;99.90
19164;DHT22;9714;51.208;4.242;2022-12-16T13:31:14;5.20;99.90
19164;DHT22;9714;51.208;4.242;2022-12-16T13:34:04;5.20;99.90
19164;DHT22;9714;51.208;4.242;2022-12-16T13:36:56;5.20;99.90
19164;DHT22;9714;51.208;4.242;2022-12-16T13:39:46;5.30;99.90
19164;DHT22;9714;51.208;4.242;2022-12-16T13:42:58;5.20;99.90
19164;DHT22;9714;51.208;4.242;2022-12-16T13:46:14;5.30;99.90
19164;DHT22;9714;51.208;4.242;2022-12-16T13:52:20;5.40;99.90
19164;DHT22;9714;51.208;4.242;2022-12-16T13:55:12;5.20;99.90
19164;DHT22;9714;51.208;4.242;2022-12-16T13:58:03;5.30;99.90
19164;DHT22;9714;51.208;4.242;2022-12-16T14:00:56;5.30;99.90
19164;DHT22;9714;51.208;4.242;2022-12-16T14:03:46;5.20;99.90
19164;DHT22;9714;51.208;4.242;2022-12-16T14:06:34;5.30;99.90
19164;DHT22;9714;51.208;4.242;2022-12-16T14:09:41;5.10;99.90
19164;DHT22;9714;51.208;4.242;2022-12-16T14:12:40;5.00;99.90
19164;DHT22;9714;51.208;4.242;2022-12-16T14:15:32;5.10;99.90
19164;DHT22;9714;51.208;4.242;2022-12-16T14:18:27;4.90;99.90
19164;DHT22;9714;51.208;4.242;2022-12-16T14:21:21;5.00;99.90
19164;DHT22;9714;51.208;4.242;2022-12-16T14:24:13;5.10;99.90
19164;DHT22;9714;51.208;4.242;2022-12-16T14:27:06;4.80;99.90
19164;DHT22;9714;51.208;4.242;2022-12-16T14:29:58;4.70;99.90
19164;DHT22;9714;51.208;4.242;2022-12-16T14:32:42;4.70;99.90
19164;DHT22;9714;51.208;4.242;2022-12-16T14:35:27;4.60;99.90
19164;DHT22;9714;51.208;4.242;2022-12-16T14:38:21;4.90;99.90
19164;DHT22;9714;51.208;4.242;2022-12-16T14:41:10;4.60;99.90
19164;DHT22;9714;51.208;4.242;2022-12-16T14:43:55;4.40;99.90
19164;DHT22;9714;51.208;4.242;2022-12-16T14:46:39;4.50;99.90
19164;DHT22;9714;51.208;4.242;2022-12-16T14:49:27;4.50;99.90
19164;DHT22;9714;51.208;4.242;2022-12-16T14:52:17;4.60;99.90
19164;DHT22;9714;51.208;4.242;2022-12-16T14:55:15;4.50;99.90
19164;DHT22;9714;51.208;4.242;2022-12-16T14:58:09;4.40;99.90
19164;DHT22;9714;51.208;4.242;2022-12-16T15:00:56;4.10;99.90
19164;DHT22;9714;51.208;4.242;2022-12-16T15:03:43;4.00;99.90
19164;DHT22;9714;51.208;4.242;2022-12-16T15:06:31;4.10;99.90
19164;DHT22;9714;51.208;4.242;2022-12-16T15:09:22;4.10;99.90
19164;DHT22;9714;51.208;4.242;2022-12-16T15:12:10;3.90;99.90
19164;DHT22;9714;51.208;4.242;2022-12-16T15:14:56;3.90;99.90
19164;DHT22;9714;51.208;4.242;2022-12-16T15:17:46;3.70;99.90
19164;DHT22;9714;51.208;4.242;2022-12-16T15:20:33;3.70;99.90
19164;DHT22;9714;51.208;4.242;2022-12-16T15:23:22;3.70;99.90
19164;DHT22;9714;51.208;4.242;2022-12-16T15:26:08;3.60;99.90
19164;DHT22;9714;51.208;4.242;2022-12-16T15:28:54;3.40;99.90
19164;DHT22;9714;51.208;4.242;2022-12-16T15:31:40;3.20;99.90
19164;DHT22;9714;51.208;4.242;2022-12-16T15:34:31;3.10;99.90
19164;DHT22;9714;51.208;4.242;2022-12-16T15:37:21;3.20;99.90
19164;DHT22;9714;51.208;4.242;2022-12-16T15:40:25;3.20;99.90
19164;DHT22;9714;51.208;4.242;2022-12-16T15:43:20;3.00;99.90
19164;DHT22;9714;51.208;4.242;2022-12-16T15:46:15;3.00;99.90
19164;DHT22;9714;51.208;4.242;2022-12-16T15:49:01;2.80;99.90
19164;DHT22;9714;51.208;4.242;2022-12-16T15:52:00;2.80;99.90
19164;DHT22;9714;51.208;4.242;2022-12-16T15:54:53;2.70;99.90
19164;DHT22;9714;51.208;4.242;2022-12-16T15:57:53;2.50;99.90
19164;DHT22;9714;51.208;4.242;2022-12-16T16:00:38;2.40;99.90
19164;DHT22;9714;51.208;4.242;2022-12-16T16:03:38;2.30;99.90
19164;DHT22;9714;51.208;4.242;2022-12-16T16:06:25;2.20;99.90
19164;DHT22;9714;51.208;4.242;2022-12-16T16:09:13;2.10;99.90
19164;DHT22;9714;51.208;4.242;2022-12-16T16:11:58;2.00;99.90
19164;DHT22;9714;51.208;4.242;2022-12-16T16:14:42;2.00;99.90
19164;DHT22;9714;51.208;4.242;2022-12-16T16:17:28;2.00;99.90
19164;DHT22;9714;51.208;4.242;2022-12-16T16:20:16;1.90;99.90
19164;DHT22;9714;51.208;4.242;2022-12-16T16:23:01;1.80;99.90
19164;DHT22;9714;51.208;4.242;2022-12-16T16:25:46;1.70;99.90
19164;DHT22;9714;51.208;4.242;2022-12-16T16:28:31;1.80;99.90
19164;DHT22;9714;51.208;4.242;2022-12-16T16:31:15;1.70;99.90
19164;DHT22;9714;51.208;4.242;2022-12-16T16:34:01;1.60;99.90
19164;DHT22;9714;51.208;4.242;2022-12-16T16:36:52;1.60;99.90
19164;DHT22;9714;51.208;4.242;2022-12-16T16:39:38;1.50;99.90
19164;DHT22;9714;51.208;4.242;2022-12-16T16:42:19;1.50;99.90
19164;DHT22;9714;51.208;4.242;2022-12-16T16:45:04;1.30;99.90
19164;DHT22;9714;51.208;4.242;2022-12-16T16:47:49;1.30;99.90
19164;DHT22;9714;51.208;4.242;2022-12-16T16:50:34;1.30;99.90
19164;DHT22;9714;51.208;4.242;2022-12-16T16:53:22;1.40;99.90
19164;DHT22;9714;51.208;4.242;2022-12-16T16:56:08;1.30;99.90
19164;DHT22;9714;51.208;4.242;2022-12-16T16:58:53;1.30;99.90
19164;DHT22;9714;51.208;4.242;2022-12-16T17:01:38;1.20;99.90
19164;DHT22;9714;51.208;4.242;2022-12-16T17:04:25;1.40;99.90
19164;DHT22;9714;51.208;4.242;2022-12-16T17:07:10;1.40;99.90
19164;DHT22;9714;51.208;4.242;2022-12-16T17:09:56;1.30;99.90
19164;DHT22;9714;51.208;4.242;2022-12-16T17:12:42;1.10;99.90
19164;DHT22;9714;51.208;4.242;2022-12-16T17:15:31;1.00;99.90
19164;DHT22;9714;51.208;4.242;2022-12-16T17:18:16;1.10;99.90
19164;DHT22;9714;51.208;4.242;2022-12-16T17:21:01;1.00;99.90
19164;DHT22;9714;51.208;4.242;2022-12-16T17:23:46;0.90;99.90
19164;DHT22;9714;51.208;4.242;2022-12-16T17:26:33;0.80;99.90
19164;DHT22;9714;51.208;4.242;2022-12-16T17:29:20;0.80;99.90
19164;DHT22;9714;51.208;4.242;2022-12-16T17:32:05;0.70;99.90
19164;DHT22;9714;51.208;4.242;2022-12-16T17:34:49;0.70;99.90
19164;DHT22;9714;51.208;4.242;2022-12-16T17:37:34;0.70;99.90
19164;DHT22;9714;51.208;4.242;2022-12-16T17:40:19;0.60;99.90
19164;DHT22;9714;51.208;4.242;2022-12-16T17:43:07;0.70;99.90
19164;DHT22;9714;51.208;4.242;2022-12-16T17:45:57;0.60;99.90
19164;DHT22;9714;51.208;4.242;2022-12-16T17:48:43;0.50;99.90
19164;DHT22;9714;51.208;4.242;2022-12-16T17:51:32;0.50;99.90
19164;DHT22;9714;51.208;4.242;2022-12-16T17:54:16;0.40;99.90
19164;DHT22;9714;51.208;4.242;2022-12-16T17:57:01;0.40;99.90